CSCL Long Beach — VRCZ7 — position and weather

sailwx.info

Track history (hours):
 
Tides and Currents Weather Stations Pressure Air Temp Water Temp Dewpoint Dewpoint Depression Visibility Wind Speed Wind Dir Waves Ship Positions

CSCL Long Beach

Last reported at 2014-Oct-02 01:34 UTC. Time now 2014-Oct-02 02:32 UTC.
Position N 51°22' E 001°57'.

Length 336.7 m; beam 45.6 m; draft 15 m.

Type: Cargo ship. MMSI: 477883900.

Date/timePositionNaut miles runAvg speedWind from/ knotsBaromVisibWave heightAir tempDewpointWater temp
2014-Oct-02 01:34N 51°22' E 001°57'1515.0
2014-Oct-02 00:34N 51°21' E 002°21'1716.4
2014-Oct-01 23:33N 51°24' E 002°47'1515.2
2014-Oct-01 22:34N 51°22' E 003°11'1 1.2
2014-Oct-01 21:26N 51°21' E 003°11'0 0.0
2014-Oct-01 20:29N 51°21' E 003°11'0 0.0
2014-Oct-01 19:23N 51°21' E 003°11'0 0.0
2014-Oct-01 18:32N 51°21' E 003°11'0 0.0
2014-Oct-01 17:32N 51°21' E 003°11'0 0.0
2014-Oct-01 16:32N 51°21' E 003°11'0 0.0
2014-Oct-01 15:32N 51°21' E 003°11'0 0.0
2014-Oct-01 14:29N 51°21' E 003°11'0 0.0
2014-Oct-01 13:32N 51°21' E 003°11'0 0.0
2014-Oct-01 12:29N 51°21' E 003°11'0 0.0
2014-Oct-01 11:32N 51°21' E 003°11'0 0.0
2014-Oct-01 10:32N 51°21' E 003°11'0 0.0
2014-Oct-01 09:29N 51°21' E 003°11'0 0.0
2014-Oct-01 08:29N 51°21' E 003°11'0 0.0
2014-Oct-01 07:32N 51°21' E 003°11'0 0.2
2014-Oct-01 06:33N 51°21' E 003°12'5 5.5
2014-Oct-01 05:33N 51°24' E 003°04'1413.8
2014-Oct-01 04:31N 51°23' E 002°42'10 7.6
2014-Oct-01 03:14N 51°21' E 002°26'6 9.4
2014-Oct-01 02:33N 51°18' E 002°17'1212.4
2014-Oct-01 01:34N 51°24' E 001°59'1413.5
2014-Oct-01 00:34N 51°35' E 002°11'1414.0
2014-Sep-30 23:33N 51°45' E 002°26'1414.0
2014-Sep-30 22:33N 51°55' E 002°41'1514.1
2014-Sep-30 21:31N 52°03' E 003°02'1414.7
2014-Sep-30 20:33N 52°03' E 003°25'1515.1
2014-Sep-30 19:33N 52°03' E 003°50'1110.8
2014-Sep-30 18:33N 51°58' E 004°05'2 1.9
2014-Sep-30 17:33N 51°58' E 004°02'0 0.0
2014-Sep-30 16:30N 51°58' E 004°02'0 0.0
2014-Sep-30 15:33N 51°58' E 004°02'0 0.0
2014-Sep-30 14:33N 51°58' E 004°02'0 0.0
2014-Sep-30 13:33N 51°58' E 004°02'0 0.0
2014-Sep-30 12:33N 51°58' E 004°02'0 0.0
2014-Sep-30 11:33N 51°58' E 004°02'0 0.0
2014-Sep-30 10:33N 51°58' E 004°02'0 0.0
2014-Sep-30 09:33N 51°58' E 004°02'0 0.0
2014-Sep-30 08:33N 51°58' E 004°02'0 0.0
2014-Sep-30 07:33N 51°58' E 004°02'0 0.0
2014-Sep-30 06:33N 51°58' E 004°02'0 0.0
2014-Sep-30 05:33N 51°58' E 004°02'0 0.0
2014-Sep-30 04:33N 51°58' E 004°02'0 0.0
2014-Sep-30 03:33N 51°58' E 004°02'0 0.0
2014-Sep-30 02:33N 51°58' E 004°02'0 0.0
2014-Sep-30 01:33N 51°58' E 004°02'0 0.0
2014-Sep-30 00:33N 51°58' E 004°02'0 0.0
2014-Sep-29 23:30N 51°58' E 004°02'0 0.0
2014-Sep-29 22:33N 51°58' E 004°02'0 0.0
2014-Sep-29 21:33N 51°58' E 004°02'0 0.0
2014-Sep-29 20:33N 51°58' E 004°02'2 1.9
2014-Sep-29 19:33N 51°58' E 004°05'1111.0
2014-Sep-29 18:33N 52°00' E 003°48'1312.8
2014-Sep-29 17:33N 52°07' E 003°31'1313.1
2014-Sep-29 16:33N 52°21' E 003°27'1615.7
2014-Sep-29 15:32N 52°36' E 003°30'1716.8
2014-Sep-29 14:33N 52°50' E 003°46'1717.7
2014-Sep-29 13:33N 53°02' E 004°06'1817.4
2014-Sep-29 12:31N 53°16' E 004°26'1616.7
2014-Sep-29 11:34N 53°29' E 004°41'1717.1
2014-Sep-29 10:34N 53°36' E 005°08'1716.6
2014-Sep-29 09:33N 53°41' E 005°34'1616.4
2014-Sep-29 08:33N 53°46' E 006°01'1716.8
2014-Sep-29 07:34N 53°51' E 006°28'1818.0
2014-Sep-29 06:33N 53°56' E 006°57'1818.2
2014-Sep-29 05:33N 53°60' E 007°27'1817.8
2014-Sep-29 04:34N 54°01' E 007°58'1717.0
2014-Sep-29 03:33N 53°59' E 008°26'1414.1
2014-Sep-29 02:33N 53°51' E 008°46'1413.6
2014-Sep-29 01:34N 53°53' E 009°09'1110.8
2014-Sep-29 00:32N 53°46' E 009°24'1413.8
2014-Sep-28 23:34N 53°35' E 009°37'1110.8
2014-Sep-28 22:33N 53°32' E 009°54'1 0.7
2014-Sep-28 21:33N 53°32' E 009°55'0 0.0
2014-Sep-28 20:33N 53°32' E 009°55'0 0.0
2014-Sep-28 19:33N 53°32' E 009°55'0 0.0
2014-Sep-28 18:33N 53°32' E 009°55'0 0.0
2014-Sep-28 17:33N 53°32' E 009°55'0 0.0
2014-Sep-28 16:33N 53°32' E 009°55'0 0.0
2014-Sep-28 15:33N 53°32' E 009°55'0 0.0
2014-Sep-28 14:33N 53°32' E 009°55'0 0.0
2014-Sep-28 13:33N 53°32' E 009°55'0 0.0
2014-Sep-28 11:33N 53°32' E 009°55'0 0.0
2014-Sep-28 10:33N 53°32' E 009°55'0 0.0
2014-Sep-28 09:33N 53°32' E 009°55'0 0.0
2014-Sep-28 08:33N 53°32' E 009°55'0 0.0
2014-Sep-28 07:33N 53°32' E 009°55'0 0.0
2014-Sep-28 06:33N 53°32' E 009°55'0 0.0
2014-Sep-28 05:33N 53°32' E 009°55'0 0.0
2014-Sep-28 04:33N 53°32' E 009°55'0 0.0
2014-Sep-28 03:33N 53°32' E 009°55'0 0.0
2014-Sep-28 02:33N 53°32' E 009°55'0 0.0
2014-Sep-28 01:33N 53°32' E 009°55'0 0.0
2014-Sep-28 00:33N 53°32' E 009°55'0 0.0
2014-Sep-27 23:33N 53°32' E 009°55'0 0.0
2014-Sep-27 22:33N 53°32' E 009°55'0 0.0
2014-Sep-27 21:33N 53°32' E 009°55'0 0.0
2014-Sep-27 20:33N 53°32' E 009°55'0 0.0
2014-Sep-27 19:33N 53°32' E 009°55'0 0.0
2014-Sep-27 18:33N 53°32' E 009°55'3 2.9
2014-Sep-27 17:33N 53°33' E 009°51'9 9.1
2014-Sep-27 16:33N 53°36' E 009°36'1111.0
2014-Sep-27 15:33N 53°44' E 009°25'1312.8
2014-Sep-27 14:33N 53°53' E 009°09'1313.2
2014-Sep-27 13:33N 53°51' E 008°47'1313.3
2014-Sep-27 12:33N 53°59' E 008°29'1414.1
2014-Sep-27 11:33N 53°60' E 008°05'1313.2
2014-Sep-27 10:34N 54°05' E 007°44'0 0.3
2014-Sep-27 09:32N 54°04' E 007°44'1 0.7
2014-Sep-27 08:33N 54°05' E 007°44'9 9.4
2014-Sep-27 07:33N 54°09' E 007°30'1312.8
2014-Sep-27 06:33N 54°09' E 007°08'3216.0
2014-Sep-27 04:32N 54°08' E 006°13'1616.2
2014-Sep-27 03:33N 54°06' E 005°46'1616.3
2014-Sep-27 02:33N 54°03' E 005°18'1616.5
2014-Sep-27 01:34N 53°60' E 004°51'13816.3
2014-Sep-26 17:06N 52°08' E 002°37'2818.4
2014-Sep-26 15:33N 51°50' E 002°00'1615.6
2014-Sep-26 14:33N 51°52' E 001°35'1110.8
2014-Sep-26 13:34N 51°56' E 001°19'1 0.8
2014-Sep-26 12:31N 51°57' E 001°19'0 0.0
2014-Sep-26 11:31N 51°57' E 001°19'0 0.0
2014-Sep-26 10:31N 51°57' E 001°19'0 0.0
2014-Sep-26 09:31N 51°57' E 001°19'0 0.0
2014-Sep-26 08:31N 51°57' E 001°19'0 0.0
2014-Sep-26 07:31N 51°57' E 001°19'0 0.0
2014-Sep-26 06:31N 51°57' E 001°19'0 0.0
2014-Sep-26 05:25N 51°57' E 001°19'0 0.0
2014-Sep-26 04:31N 51°57' E 001°19'0 0.0
2014-Sep-26 03:31N 51°57' E 001°19'0 0.0
2014-Sep-26 02:28N 51°57' E 001°19'0 0.0
2014-Sep-26 01:28N 51°57' E 001°19'0 0.0
2014-Sep-26 00:28N 51°57' E 001°19'0 0.0
2014-Sep-25 23:31N 51°57' E 001°19'0 0.0
2014-Sep-25 22:31N 51°57' E 001°19'0 0.0
2014-Sep-25 21:31N 51°57' E 001°19'0 0.0
2014-Sep-25 20:31N 51°57' E 001°19'0 0.0
2014-Sep-25 19:31N 51°57' E 001°19'0 0.0
2014-Sep-25 18:31N 51°57' E 001°19'0 0.0
2014-Sep-25 17:31N 51°57' E 001°19'0 0.0
2014-Sep-25 16:31N 51°57' E 001°19'0 0.0
2014-Sep-25 15:31N 51°57' E 001°19'0 0.0
2014-Sep-25 14:31N 51°57' E 001°19'0 0.0
2014-Sep-25 13:31N 51°57' E 001°19'0 0.0
2014-Sep-25 12:31N 51°57' E 001°19'0 0.0
2014-Sep-25 11:31N 51°57' E 001°19'0 0.0
2014-Sep-25 10:31N 51°57' E 001°19'0 0.0
2014-Sep-25 09:31N 51°57' E 001°19'0 0.0
2014-Sep-25 08:31N 51°57' E 001°19'0 0.0
2014-Sep-25 07:31N 51°57' E 001°19'0 0.0
2014-Sep-25 06:31N 51°57' E 001°19'0 0.0
2014-Sep-25 05:31N 51°57' E 001°19'0 0.0
2014-Sep-25 04:31N 51°57' E 001°19'0 0.0
2014-Sep-25 03:33N 51°57' E 001°19'5 5.0
2014-Sep-25 02:34N 51°56' E 001°27'1010.2
2014-Sep-25 01:33N 51°52' E 001°42'3 2.9
2014-Sep-25 00:32N 51°55' E 001°43'0 0.2
2014-Sep-24 23:32N 51°55' E 001°42'0 0.0
2014-Sep-24 22:32N 51°55' E 001°42'0 0.0
2014-Sep-24 21:32N 51°55' E 001°42'7 6.9
2014-Sep-24 20:33N 51°49' E 001°48'1414.1
2014-Sep-24 19:34N 51°35' E 001°51'1212.3
2014-Sep-24 18:33N 51°25' E 002°02'9 9.4
2014-Sep-24 17:33N 51°16' E 002°05'1111.3
2014-Sep-24 16:33N 51°09' E 001°51'1212.2
2014-Sep-24 15:33N 51°01' E 001°36'1313.0
2014-Sep-24 14:33N 50°50' E 001°25'1512.6
2014-Sep-24 13:23N 50°38' E 001°13'1113.0
2014-Sep-24 12:33N 50°31' E 000°60'1312.8
2014-Sep-24 11:33N 50°27' E 000°41'1313.3
2014-Sep-24 10:33N 50°23' E 000°21'  
2014-Sep-22 06:22N 38°10' W 009°40'1620.0
2014-Sep-22 05:33N 37°53' W 009°38'2019.7
2014-Sep-22 04:33N 37°34' W 009°32'  
Track history (hours):
 
Tides and Currents Weather Stations Pressure Air Temp Water Temp Dewpoint Dewpoint Depression Visibility Wind Speed Wind Dir Waves Ship Positions

CSCL Long Beach

Last reported at 2014-Oct-02 01:34 UTC. Time now 2014-Oct-02 02:32 UTC.
Position N 51°22' E 001°57'.

Length 336.7 m; beam 45.6 m; draft 15 m.

Type: Cargo ship. MMSI: 477883900.

Date/timePositionNaut miles runAvg speedWind from/ knotsBaromVisibWave heightAir tempDewpointWater temp
2014-Oct-02 01:34N 51°22' E 001°57'1515.0
2014-Oct-02 00:34N 51°21' E 002°21'1716.4
2014-Oct-01 23:33N 51°24' E 002°47'1515.2
2014-Oct-01 22:34N 51°22' E 003°11'1 1.2
2014-Oct-01 21:26N 51°21' E 003°11'0 0.0
2014-Oct-01 20:29N 51°21' E 003°11'0 0.0
2014-Oct-01 19:23N 51°21' E 003°11'0 0.0
2014-Oct-01 18:32N 51°21' E 003°11'0 0.0
2014-Oct-01 17:32N 51°21' E 003°11'0 0.0
2014-Oct-01 16:32N 51°21' E 003°11'0 0.0
2014-Oct-01 15:32N 51°21' E 003°11'0 0.0
2014-Oct-01 14:29N 51°21' E 003°11'0 0.0
2014-Oct-01 13:32N 51°21' E 003°11'0 0.0
2014-Oct-01 12:29N 51°21' E 003°11'0 0.0
2014-Oct-01 11:32N 51°21' E 003°11'0 0.0
2014-Oct-01 10:32N 51°21' E 003°11'0 0.0
2014-Oct-01 09:29N 51°21' E 003°11'0 0.0
2014-Oct-01 08:29N 51°21' E 003°11'0 0.0
2014-Oct-01 07:32N 51°21' E 003°11'0 0.2
2014-Oct-01 06:33N 51°21' E 003°12'5 5.5
2014-Oct-01 05:33N 51°24' E 003°04'1413.8
2014-Oct-01 04:31N 51°23' E 002°42'10 7.6
2014-Oct-01 03:14N 51°21' E 002°26'6 9.4
2014-Oct-01 02:33N 51°18' E 002°17'1212.4
2014-Oct-01 01:34N 51°24' E 001°59'1413.5
2014-Oct-01 00:34N 51°35' E 002°11'1414.0
2014-Sep-30 23:33N 51°45' E 002°26'1414.0
2014-Sep-30 22:33N 51°55' E 002°41'1514.1
2014-Sep-30 21:31N 52°03' E 003°02'1414.7
2014-Sep-30 20:33N 52°03' E 003°25'1515.1
2014-Sep-30 19:33N 52°03' E 003°50'1110.8
2014-Sep-30 18:33N 51°58' E 004°05'2 1.9
2014-Sep-30 17:33N 51°58' E 004°02'0 0.0
2014-Sep-30 16:30N 51°58' E 004°02'0 0.0
2014-Sep-30 15:33N 51°58' E 004°02'0 0.0
2014-Sep-30 14:33N 51°58' E 004°02'0 0.0
2014-Sep-30 13:33N 51°58' E 004°02'0 0.0
2014-Sep-30 12:33N 51°58' E 004°02'0 0.0
2014-Sep-30 11:33N 51°58' E 004°02'0 0.0
2014-Sep-30 10:33N 51°58' E 004°02'0 0.0
2014-Sep-30 09:33N 51°58' E 004°02'0 0.0
2014-Sep-30 08:33N 51°58' E 004°02'0 0.0
2014-Sep-30 07:33N 51°58' E 004°02'0 0.0
2014-Sep-30 06:33N 51°58' E 004°02'0 0.0
2014-Sep-30 05:33N 51°58' E 004°02'0 0.0
2014-Sep-30 04:33N 51°58' E 004°02'0 0.0
2014-Sep-30 03:33N 51°58' E 004°02'0 0.0
2014-Sep-30 02:33N 51°58' E 004°02'0 0.0
2014-Sep-30 01:33N 51°58' E 004°02'0 0.0
2014-Sep-30 00:33N 51°58' E 004°02'0 0.0
2014-Sep-29 23:30N 51°58' E 004°02'0 0.0
2014-Sep-29 22:33N 51°58' E 004°02'0 0.0
2014-Sep-29 21:33N 51°58' E 004°02'0 0.0
2014-Sep-29 20:33N 51°58' E 004°02'2 1.9
2014-Sep-29 19:33N 51°58' E 004°05'1111.0
2014-Sep-29 18:33N 52°00' E 003°48'1312.8
2014-Sep-29 17:33N 52°07' E 003°31'1313.1
2014-Sep-29 16:33N 52°21' E 003°27'1615.7
2014-Sep-29 15:32N 52°36' E 003°30'1716.8
2014-Sep-29 14:33N 52°50' E 003°46'1717.7
2014-Sep-29 13:33N 53°02' E 004°06'1817.4
2014-Sep-29 12:31N 53°16' E 004°26'1616.7
2014-Sep-29 11:34N 53°29' E 004°41'1717.1
2014-Sep-29 10:34N 53°36' E 005°08'1716.6
2014-Sep-29 09:33N 53°41' E 005°34'1616.4
2014-Sep-29 08:33N 53°46' E 006°01'1716.8
2014-Sep-29 07:34N 53°51' E 006°28'1818.0
2014-Sep-29 06:33N 53°56' E 006°57'1818.2
2014-Sep-29 05:33N 53°60' E 007°27'1817.8
2014-Sep-29 04:34N 54°01' E 007°58'1717.0
2014-Sep-29 03:33N 53°59' E 008°26'1414.1
2014-Sep-29 02:33N 53°51' E 008°46'1413.6
2014-Sep-29 01:34N 53°53' E 009°09'1110.8
2014-Sep-29 00:32N 53°46' E 009°24'1413.8
2014-Sep-28 23:34N 53°35' E 009°37'1110.8
2014-Sep-28 22:33N 53°32' E 009°54'1 0.7
2014-Sep-28 21:33N 53°32' E 009°55'0 0.0
2014-Sep-28 20:33N 53°32' E 009°55'0 0.0
2014-Sep-28 19:33N 53°32' E 009°55'0 0.0
2014-Sep-28 18:33N 53°32' E 009°55'0 0.0
2014-Sep-28 17:33N 53°32' E 009°55'0 0.0
2014-Sep-28 16:33N 53°32' E 009°55'0 0.0
2014-Sep-28 15:33N 53°32' E 009°55'0 0.0
2014-Sep-28 14:33N 53°32' E 009°55'0 0.0
2014-Sep-28 13:33N 53°32' E 009°55'0 0.0
2014-Sep-28 11:33N 53°32' E 009°55'0 0.0
2014-Sep-28 10:33N 53°32' E 009°55'0 0.0
2014-Sep-28 09:33N 53°32' E 009°55'0 0.0
2014-Sep-28 08:33N 53°32' E 009°55'0 0.0
2014-Sep-28 07:33N 53°32' E 009°55'0 0.0
2014-Sep-28 06:33N 53°32' E 009°55'0 0.0
2014-Sep-28 05:33N 53°32' E 009°55'0 0.0
2014-Sep-28 04:33N 53°32' E 009°55'0 0.0
2014-Sep-28 03:33N 53°32' E 009°55'0 0.0
2014-Sep-28 02:33N 53°32' E 009°55'0 0.0
2014-Sep-28 01:33N 53°32' E 009°55'0 0.0
2014-Sep-28 00:33N 53°32' E 009°55'0 0.0
2014-Sep-27 23:33N 53°32' E 009°55'0 0.0
2014-Sep-27 22:33N 53°32' E 009°55'0 0.0
2014-Sep-27 21:33N 53°32' E 009°55'0 0.0
2014-Sep-27 20:33N 53°32' E 009°55'0 0.0
2014-Sep-27 19:33N 53°32' E 009°55'0 0.0
2014-Sep-27 18:33N 53°32' E 009°55'3 2.9
2014-Sep-27 17:33N 53°33' E 009°51'9 9.1
2014-Sep-27 16:33N 53°36' E 009°36'1111.0
2014-Sep-27 15:33N 53°44' E 009°25'1312.8
2014-Sep-27 14:33N 53°53' E 009°09'1313.2
2014-Sep-27 13:33N 53°51' E 008°47'1313.3
2014-Sep-27 12:33N 53°59' E 008°29'1414.1
2014-Sep-27 11:33N 53°60' E 008°05'1313.2
2014-Sep-27 10:34N 54°05' E 007°44'0 0.3
2014-Sep-27 09:32N 54°04' E 007°44'1 0.7
2014-Sep-27 08:33N 54°05' E 007°44'9 9.4
2014-Sep-27 07:33N 54°09' E 007°30'1312.8
2014-Sep-27 06:33N 54°09' E 007°08'3216.0
2014-Sep-27 04:32N 54°08' E 006°13'1616.2
2014-Sep-27 03:33N 54°06' E 005°46'1616.3
2014-Sep-27 02:33N 54°03' E 005°18'1616.5
2014-Sep-27 01:34N 53°60' E 004°51'13816.3
2014-Sep-26 17:06N 52°08' E 002°37'2818.4
2014-Sep-26 15:33N 51°50' E 002°00'1615.6
2014-Sep-26 14:33N 51°52' E 001°35'1110.8
2014-Sep-26 13:34N 51°56' E 001°19'1 0.8
2014-Sep-26 12:31N 51°57' E 001°19'0 0.0
2014-Sep-26 11:31N 51°57' E 001°19'0 0.0
2014-Sep-26 10:31N 51°57' E 001°19'0 0.0
2014-Sep-26 09:31N 51°57' E 001°19'0 0.0
2014-Sep-26 08:31N 51°57' E 001°19'0 0.0
2014-Sep-26 07:31N 51°57' E 001°19'0 0.0
2014-Sep-26 06:31N 51°57' E 001°19'0 0.0
2014-Sep-26 05:25N 51°57' E 001°19'0 0.0
2014-Sep-26 04:31N 51°57' E 001°19'0 0.0
2014-Sep-26 03:31N 51°57' E 001°19'0 0.0
2014-Sep-26 02:28N 51°57' E 001°19'0 0.0
2014-Sep-26 01:28N 51°57' E 001°19'0 0.0
2014-Sep-26 00:28N 51°57' E 001°19'0 0.0
2014-Sep-25 23:31N 51°57' E 001°19'0 0.0
2014-Sep-25 22:31N 51°57' E 001°19'0 0.0
2014-Sep-25 21:31N 51°57' E 001°19'0 0.0
2014-Sep-25 20:31N 51°57' E 001°19'0 0.0
2014-Sep-25 19:31N 51°57' E 001°19'0 0.0
2014-Sep-25 18:31N 51°57' E 001°19'0 0.0
2014-Sep-25 17:31N 51°57' E 001°19'0 0.0
2014-Sep-25 16:31N 51°57' E 001°19'0 0.0
2014-Sep-25 15:31N 51°57' E 001°19'0 0.0
2014-Sep-25 14:31N 51°57' E 001°19'0 0.0
2014-Sep-25 13:31N 51°57' E 001°19'0 0.0
2014-Sep-25 12:31N 51°57' E 001°19'0 0.0
2014-Sep-25 11:31N 51°57' E 001°19'0 0.0
2014-Sep-25 10:31N 51°57' E 001°19'0 0.0
2014-Sep-25 09:31N 51°57' E 001°19'0 0.0
2014-Sep-25 08:31N 51°57' E 001°19'0 0.0
2014-Sep-25 07:31N 51°57' E 001°19'0 0.0
2014-Sep-25 06:31N 51°57' E 001°19'0 0.0
2014-Sep-25 05:31N 51°57' E 001°19'0 0.0
2014-Sep-25 04:31N 51°57' E 001°19'0 0.0
2014-Sep-25 03:33N 51°57' E 001°19'5 5.0
2014-Sep-25 02:34N 51°56' E 001°27'1010.2
2014-Sep-25 01:33N 51°52' E 001°42'3 2.9
2014-Sep-25 00:32N 51°55' E 001°43'0 0.2
2014-Sep-24 23:32N 51°55' E 001°42'0 0.0
2014-Sep-24 22:32N 51°55' E 001°42'0 0.0
2014-Sep-24 21:32N 51°55' E 001°42'7 6.9
2014-Sep-24 20:33N 51°49' E 001°48'1414.1
2014-Sep-24 19:34N 51°35' E 001°51'1212.3
2014-Sep-24 18:33N 51°25' E 002°02'9 9.4
2014-Sep-24 17:33N 51°16' E 002°05'1111.3
2014-Sep-24 16:33N 51°09' E 001°51'1212.2
2014-Sep-24 15:33N 51°01' E 001°36'1313.0
2014-Sep-24 14:33N 50°50' E 001°25'1512.6
2014-Sep-24 13:23N 50°38' E 001°13'1113.0
2014-Sep-24 12:33N 50°31' E 000°60'1312.8
2014-Sep-24 11:33N 50°27' E 000°41'1313.3
2014-Sep-24 10:33N 50°23' E 000°21'  
2014-Sep-22 06:22N 38°10' W 009°40'1620.0
2014-Sep-22 05:33N 37°53' W 009°38'2019.7
2014-Sep-22 04:33N 37°34' W 009°32'  

Dump ship's entire track history